Time;durP1;ratioP1;P1;durP2;ratioP2;P2;SDS_P1;SDS_P2;PMS_P1;PMS_P2;Temp;Humidity;BMP_temperature;BMP_pressure;BME280_temperature;BME280_humidity;BME280_pressure;Samples;Min_cycle;Max_cycle;Signal;HPM_P1;HPM_P2
2022/01/30 00:00:50;;;;;;;325.30;231.35;;;;;;;25.15;35.68;103381.69;5052684;28;20033;-42
2022/01/30 00:03:19;;;;;;;346.95;242.90;;;;;;;25.19;35.72;103388.88;5035007;28;20483;-42
2022/01/30 00:05:47;;;;;;;323.77;232.82;;;;;;;25.20;35.62;103382.78;5052520;28;20107;-41
2022/01/30 00:08:16;;;;;;;334.60;236.93;;;;;;;25.15;35.54;103381.69;5053009;28;20025;-43
2022/01/30 00:10:45;;;;;;;336.80;236.20;;;;;;;25.18;35.65;103379.19;5052882;28;20083;-41
2022/01/30 00:13:16;;;;;;;332.42;236.48;;;;;;;25.18;35.57;103372.22;5052570;28;20039;-41
2022/01/30 00:15:50;;;;;;;342.25;243.95;;;;;;;25.18;35.58;103366.03;5035572;28;20047;-42
2022/01/30 00:18:34;;;;;;;345.58;243.23;;;;;;;25.16;35.55;103360.75;5052321;28;20044;-42
2022/01/30 00:21:10;;;;;;;351.05;247.02;;;;;;;25.17;35.76;103349.41;5037463;28;20063;-43
2022/01/30 00:23:46;;;;;;;349.88;251.35;;;;;;;25.17;35.50;103352.03;5052862;28;20029;-42
2022/01/30 00:26:17;;;;;;;346.08;243.57;;;;;;;25.13;35.37;103352.72;5036017;28;20052;-42
2022/01/30 00:28:46;;;;;;;353.98;247.65;;;;;;;25.19;35.54;103346.84;5052755;28;20108;-43
2022/01/30 00:31:17;;;;;;;339.65;244.23;;;;;;;25.20;35.68;103337.25;5034565;28;20029;-43
2022/01/30 00:33:45;;;;;;;353.63;246.82;;;;;;;25.18;35.72;103330.19;5052488;28;20028;-42
2022/01/30 00:36:14;;;;;;;345.65;245.40;;;;;;;25.17;35.59;103317.88;5052230;28;20045;-42
2022/01/30 00:38:43;;;;;;;356.25;250.95;;;;;;;25.09;35.73;103315.75;5052334;28;20395;-43
2022/01/30 00:41:11;;;;;;;349.95;253.63;;;;;;;25.12;35.75;103321.13;5052302;28;20029;-42
2022/01/30 00:43:40;;;;;;;328.40;236.43;;;;;;;25.16;35.52;103323.97;5052491;28;20029;-42
2022/01/30 00:46:08;;;;;;;349.20;254.30;;;;;;;25.14;35.71;103322.09;5051729;28;20029;-41
2022/01/30 00:48:37;;;;;;;350.63;249.70;;;;;;;25.12;35.48;103308.00;5052261;28;20029;-42
2022/01/30 00:51:06;;;;;;;339.88;242.85;;;;;;;25.10;35.75;103304.41;5052615;28;20028;-42
2022/01/30 00:53:34;;;;;;;355.52;254.82;;;;;;;25.09;35.96;103302.59;5037925;28;20025;-44
2022/01/30 00:56:03;;;;;;;354.00;248.75;;;;;;;25.09;35.99;103313.09;5021540;28;20376;-42
2022/01/30 00:58:31;;;;;;;363.73;253.68;;;;;;;25.11;35.68;103306.19;5037969;28;20029;-42
2022/01/30 01:01:00;;;;;;;335.02;243.07;;;;;;;25.03;35.69;103288.34;5055916;28;20399;-42
2022/01/30 01:03:28;;;;;;;363.48;254.27;;;;;;;25.06;35.90;103287.63;5055839;28;20468;-42
2022/01/30 01:05:58;;;;;;;364.33;256.52;;;;;;;25.06;35.92;103289.31;5055668;28;20533;-42
2022/01/30 01:08:35;;;;;;;363.38;262.20;;;;;;;25.00;35.94;103285.59;5055932;28;20025;-43
2022/01/30 01:14:10;;;;;;;355.98;258.02;;;;;;;25.03;35.84;103277.84;5038566;28;20037;-42
2022/01/30 01:25:00;;;;;;;357.95;251.82;;;;;;;25.04;35.88;103263.00;5048695;28;20484;-41
2022/01/30 01:27:29;;;;;;;369.35;261.00;;;;;;;25.04;35.72;103255.13;5055618;28;20482;-42
2022/01/30 01:29:57;;;;;;;361.13;259.27;;;;;;;25.06;36.01;103265.69;5055481;28;20429;-41
2022/01/30 01:32:26;;;;;;;371.55;265.50;;;;;;;24.98;35.74;103253.13;5037712;28;20029;-41
2022/01/30 01:34:54;;;;;;;365.60;262.40;;;;;;;24.81;36.30;103225.22;5037720;28;20029;-42
2022/01/30 01:37:23;;;;;;;377.90;264.52;;;;;;;24.94;35.99;103239.78;5037219;28;20076;-42
2022/01/30 01:39:52;;;;;;;370.45;267.35;;;;;;;24.92;36.18;103244.06;5055015;28;20039;-42
2022/01/30 01:42:20;;;;;;;368.70;265.55;;;;;;;24.92;36.39;103249.31;5055289;28;20440;-43
2022/01/30 01:44:52;;;;;;;373.50;267.02;;;;;;;24.94;36.04;103245.94;5055175;28;20021;-42
2022/01/30 01:47:22;;;;;;;363.45;264.73;;;;;;;24.88;35.91;103251.81;5054597;28;20036;-42
2022/01/30 01:49:52;;;;;;;374.20;269.60;;;;;;;24.94;35.88;103256.44;5055089;28;20032;-42
2022/01/30 01:52:23;;;;;;;378.48;268.67;;;;;;;24.92;36.35;103255.47;5055320;28;20537;-42
2022/01/30 01:54:54;;;;;;;377.50;272.52;;;;;;;24.97;36.12;103259.22;5055283;28;20098;-42
2022/01/30 01:57:23;;;;;;;379.70;275.85;;;;;;;24.93;36.19;103254.66;5054902;28;20430;-42
2022/01/30 01:59:52;;;;;;;387.80;276.13;;;;;;;24.92;36.44;103265.06;5054558;28;20032;-43
2022/01/30 02:02:22;;;;;;;372.88;269.25;;;;;;;24.91;36.32;103258.94;5037316;28;20094;-42
2022/01/30 02:04:51;;;;;;;378.02;275.50;;;;;;;24.89;36.33;103260.59;5054397;28;20029;-41
2022/01/30 02:10:11;;;;;;;384.10;274.52;;;;;;;24.67;36.23;103219.28;5045902;28;20124;-42
2022/01/30 02:12:48;;;;;;;383.58;272.80;;;;;;;24.84;36.59;103254.22;5037610;28;20025;-42
2022/01/30 02:15:45;;;;;;;380.63;272.65;;;;;;;24.83;36.34;103261.19;5037898;28;20028;-42
2022/01/30 02:24:32;;;;;;;391.80;280.30;;;;;;;24.72;36.14;103212.56;5047690;28;20419;-43
2022/01/30 02:26:27;;;;;;;381.48;279.83;;;;;;;24.85;36.31;103240.25;5032144;28;20130;-42
2022/01/30 02:28:55;;;;;;;386.17;280.40;;;;;;;24.81;36.56;103235.72;5036823;28;20033;-42
2022/01/30 02:31:24;;;;;;;394.45;284.17;;;;;;;24.78;36.35;103244.34;5054239;28;20118;-42
2022/01/30 02:33:53;;;;;;;382.42;273.38;;;;;;;24.75;36.53;103240.69;5054100;28;20033;-43
2022/01/30 02:36:21;;;;;;;379.20;269.60;;;;;;;24.81;36.53;103243.59;5053117;28;20060;-42
2022/01/30 02:38:50;;;;;;;381.00;275.55;;;;;;;24.78;36.51;103243.44;5053502;28;20102;-42
2022/01/30 02:41:18;;;;;;;390.33;281.88;;;;;;;24.76;36.52;103234.59;5053908;28;20064;-42
2022/01/30 02:43:57;;;;;;;390.38;281.63;;;;;;;24.80;36.64;103239.16;5054203;28;20130;-42
2022/01/30 02:46:32;;;;;;;398.75;285.00;;;;;;;24.78;36.66;103233.84;5053989;28;20474;-43
2022/01/30 02:49:12;;;;;;;381.90;275.95;;;;;;;24.79;36.43;103234.75;5037410;28;20025;-41
2022/01/30 02:51:48;;;;;;;383.77;274.80;;;;;;;24.76;36.40;103234.59;5053273;28;20388;-42
2022/01/30 02:54:17;;;;;;;385.77;280.05;;;;;;;24.75;36.69;103227.56;5035418;28;20479;-42
2022/01/30 02:56:45;;;;;;;387.35;281.52;;;;;;;24.75;36.68;103223.19;5036047;28;20098;-42
2022/01/30 02:59:15;;;;;;;381.98;281.35;;;;;;;24.73;36.62;103220.50;5053815;28;20021;-42
2022/01/30 03:01:44;;;;;;;378.10;274.92;;;;;;;24.78;36.31;103219.81;5053879;28;20074;-42
2022/01/30 03:04:12;;;;;;;396.15;282.42;;;;;;;24.76;36.68;103213.59;5053740;28;20029;-42
2022/01/30 03:06:41;;;;;;;380.33;274.80;;;;;;;24.75;36.73;103209.19;5053601;28;20033;-43
2022/01/30 03:09:11;;;;;;;389.05;284.23;;;;;;;24.70;36.55;103209.88;5053332;28;20476;-42
2022/01/30 03:11:40;;;;;;;385.15;277.52;;;;;;;24.69;36.62;103215.91;5054022;28;20130;-42
2022/01/30 03:14:08;;;;;;;384.27;279.73;;;;;;;24.72;36.83;103208.22;5053352;28;20112;-42
2022/01/30 03:16:37;;;;;;;384.75;275.83;;;;;;;24.69;36.54;103213.28;5035622;28;20025;-42
2022/01/30 03:19:05;;;;;;;392.13;283.17;;;;;;;24.62;36.66;103208.59;5053761;28;20099;-42
2022/01/30 03:21:34;;;;;;;388.30;278.63;;;;;;;24.69;36.71;103209.78;5053053;28;20021;-42
2022/01/30 03:24:03;;;;;;;380.55;274.98;;;;;;;24.67;36.74;103209.69;5052954;28;20396;-42
2022/01/30 03:26:37;;;;;;;379.95;273.88;;;;;;;24.65;36.61;103197.34;5053128;28;20142;-41
2022/01/30 03:29:06;;;;;;;380.98;277.67;;;;;;;24.71;36.85;103203.78;5053163;28;20020;-41
2022/01/30 03:31:40;;;;;;;389.23;283.30;;;;;;;24.69;36.90;103201.91;5035568;28;20059;-41
2022/01/30 03:34:10;;;;;;;381.23;278.42;;;;;;;24.69;36.91;103199.28;5052957;28;20384;-42
2022/01/30 03:36:39;;;;;;;384.88;277.52;;;;;;;24.65;36.77;103207.81;5052721;28;20088;-42
2022/01/30 03:39:08;;;;;;;386.27;281.35;;;;;;;24.65;36.99;103208.75;5052808;28;20025;-41
2022/01/30 03:41:37;;;;;;;394.15;286.55;;;;;;;24.67;36.64;103206.19;5052005;28;20499;-43
2022/01/30 03:44:05;;;;;;;384.95;279.73;;;;;;;24.64;36.98;103204.31;5053213;28;20056;-42
2022/01/30 03:46:34;;;;;;;384.23;278.35;;;;;;;24.60;36.90;103191.88;5052915;28;20056;-42
2022/01/30 03:49:02;;;;;;;392.58;284.33;;;;;;;24.58;37.17;103198.78;5053119;28;20036;-41
2022/01/30 03:51:31;;;;;;;396.48;281.67;;;;;;;24.58;36.84;103199.66;5052115;28;20170;-41
2022/01/30 03:53:59;;;;;;;389.60;278.67;;;;;;;24.56;37.18;103189.94;5052887;28;20028;-41
2022/01/30 03:56:28;;;;;;;385.40;280.40;;;;;;;24.59;36.92;103184.84;5035244;28;20041;-41
2022/01/30 03:58:56;;;;;;;391.70;284.63;;;;;;;24.69;37.01;103194.91;5053315;28;20025;-42
2022/01/30 04:01:25;;;;;;;378.90;279.75;;;;;;;24.60;36.71;103181.38;5052671;28;20135;-41
2022/01/30 04:03:54;;;;;;;388.48;281.48;;;;;;;24.64;36.76;103191.19;5052192;28;20180;-42
2022/01/30 04:06:22;;;;;;;385.13;274.88;;;;;;;24.63;36.68;103186.78;5052411;28;20535;-44
2022/01/30 04:08:51;;;;;;;389.83;281.38;;;;;;;24.63;37.20;103184.16;5052782;28;20498;-41
2022/01/30 04:11:20;;;;;;;385.88;281.30;;;;;;;24.58;36.75;103178.66;5052160;28;20063;-44
2022/01/30 04:13:48;;;;;;;390.27;279.17;;;;;;;24.60;37.17;103188.34;5052125;28;20025;-41
2022/01/30 04:16:17;;;;;;;387.42;280.52;;;;;;;24.62;36.81;103177.09;5052358;28;20033;-43
2022/01/30 04:18:46;;;;;;;385.13;278.70;;;;;;;24.46;36.92;103162.38;5052525;28;20090;-41
2022/01/30 04:21:14;;;;;;;386.48;281.42;;;;;;;24.57;37.16;103191.72;5052055;28;20113;-42
2022/01/30 04:23:42;;;;;;;387.73;282.88;;;;;;;24.48;36.99;103175.59;5052797;28;20051;-41
2022/01/30 04:26:10;;;;;;;395.50;281.05;;;;;;;24.63;37.14;103197.28;5052970;28;20057;-41
2022/01/30 04:28:39;;;;;;;392.83;282.45;;;;;;;24.60;37.05;103194.50;5056313;28;20395;-42
2022/01/30 04:31:08;;;;;;;391.75;282.98;;;;;;;24.55;37.27;103193.38;5056687;28;20083;-41
2022/01/30 04:33:36;;;;;;;392.50;288.42;;;;;;;24.55;37.29;103193.38;5038056;28;20025;-42
2022/01/30 04:36:12;;;;;;;389.98;284.48;;;;;;;24.56;37.11;103196.09;5055897;28;20112;-41
2022/01/30 04:38:56;;;;;;;381.77;278.65;;;;;;;24.56;36.91;103203.06;5056166;28;20117;-41
2022/01/30 04:52:52;;;;;;;395.20;285.00;;;;;;;24.54;37.48;103186.34;5052752;28;20052;-41
2022/01/30 04:58:24;;;;;;;396.00;282.80;;;;;;;24.52;37.24;103174.88;5055931;28;20029;-42
2022/01/30 05:01:05;;;;;;;398.63;286.00;;;;;;;24.55;37.46;103172.41;5056585;28;20036;-42
2022/01/30 05:03:44;;;;;;;391.05;283.33;;;;;;;24.54;37.08;103175.84;5038114;28;20308;-42
2022/01/30 05:06:16;;;;;;;389.25;282.60;;;;;;;24.53;37.35;103185.47;5055632;28;20478;-42
2022/01/30 05:08:45;;;;;;;394.98;285.70;;;;;;;24.52;37.01;103174.88;5055925;28;20037;-42
2022/01/30 05:11:13;;;;;;;397.67;283.02;;;;;;;24.53;37.49;103172.34;5056068;28;20025;-41
2022/01/30 05:13:46;;;;;;;389.45;282.13;;;;;;;24.52;37.66;103172.25;5055814;28;20419;-42
2022/01/30 05:16:16;;;;;;;382.75;282.50;;;;;;;24.49;37.08;103164.25;5055576;28;20028;-41
2022/01/30 05:18:45;;;;;;;397.17;287.33;;;;;;;24.49;37.51;103175.63;5055436;28;20029;-41
2022/01/30 05:21:14;;;;;;;376.05;275.20;;;;;;;24.48;37.03;103165.09;5055364;28;20108;-42
2022/01/30 05:23:41;;;;;;;386.90;281.02;;;;;;;24.49;37.56;103167.78;5055470;28;20037;-41
2022/01/30 05:26:10;;;;;;;384.02;279.02;;;;;;;24.50;37.40;103168.66;5054943;28;20377;-42
2022/01/30 05:28:39;;;;;;;389.60;283.33;;;;;;;24.50;37.39;103172.19;5055434;28;20108;-41
2022/01/30 05:31:07;;;;;;;388.88;280.90;;;;;;;24.47;37.69;103166.78;5055293;28;20025;-42
2022/01/30 05:33:36;;;;;;;386.00;282.50;;;;;;;24.45;37.69;103163.19;5055298;28;20396;-42
2022/01/30 05:36:05;;;;;;;389.98;283.23;;;;;;;24.49;37.29;103161.63;5054443;28;20044;-41
2022/01/30 05:38:34;;;;;;;395.17;285.25;;;;;;;24.50;37.11;103158.16;5053483;28;20036;-41
2022/01/30 05:41:02;;;;;;;390.65;284.48;;;;;;;24.50;37.36;103155.53;5055305;28;20033;-41
2022/01/30 05:43:33;;;;;;;392.10;281.05;;;;;;;24.49;37.39;103161.63;5054912;28;20098;-42
2022/01/30 05:46:15;;;;;;;392.48;289.45;;;;;;;24.47;37.55;103156.31;5055042;28;20365;-41
2022/01/30 05:48:44;;;;;;;389.00;281.08;;;;;;;24.42;37.59;103145.59;5037236;28;20116;-41
2022/01/30 05:51:13;;;;;;;389.73;286.90;;;;;;;24.45;37.54;103149.19;5055349;28;20391;-42
2022/01/30 05:53:41;;;;;;;391.65;286.88;;;;;;;24.42;37.78;103148.22;5055080;28;20075;-42
2022/01/30 05:56:11;;;;;;;387.30;282.98;;;;;;;24.40;37.54;103141.13;5055091;28;20025;-42
2022/01/30 05:58:40;;;;;;;391.98;281.15;;;;;;;24.44;37.17;103145.66;5054697;28;20033;-41
2022/01/30 06:01:09;;;;;;;387.40;283.42;;;;;;;24.45;37.40;103144.84;5054997;28;20458;-41
2022/01/30 06:03:37;;;;;;;383.67;280.00;;;;;;;24.43;37.59;103136.00;5054284;28;20032;-41
2022/01/30 06:06:07;;;;;;;387.98;281.17;;;;;;;24.40;37.38;103135.88;5020642;28;20055;-42
2022/01/30 06:08:44;;;;;;;387.17;281.75;;;;;;;24.42;37.70;103144.69;5054574;28;20025;-43
2022/01/30 06:11:13;;;;;;;402.98;286.20;;;;;;;24.42;37.23;103135.09;5054145;28;20037;-42
2022/01/30 06:13:42;;;;;;;388.30;282.40;;;;;;;24.43;37.54;103141.25;5054808;28;20029;-41
2022/01/30 06:16:09;;;;;;;391.58;287.67;;;;;;;24.41;37.55;103150.75;5054274;28;20032;-42
2022/01/30 06:18:38;;;;;;;387.75;284.33;;;;;;;24.40;37.75;103152.50;5054488;28;20040;-42
2022/01/30 06:21:07;;;;;;;391.50;287.67;;;;;;;24.34;37.70;103146.97;5054519;28;20040;-42
2022/01/30 06:23:36;;;;;;;395.95;288.92;;;;;;;24.38;37.49;103150.66;5054745;28;20107;-43
2022/01/30 06:26:05;;;;;;;385.60;285.20;;;;;;;24.34;37.66;103153.94;5053667;28;20100;-41
2022/01/30 06:28:34;;;;;;;394.20;287.23;;;;;;;24.35;37.93;103159.25;5053735;28;20029;-41
2022/01/30 06:31:02;;;;;;;400.73;293.63;;;;;;;24.40;37.57;103164.75;5054173;28;20510;-41
2022/01/30 06:33:31;;;;;;;401.40;288.75;;;;;;;24.38;37.76;103161.13;5054165;28;20033;-41
2022/01/30 06:35:59;;;;;;;401.48;286.67;;;;;;;24.40;37.62;103149.88;5053346;28;20068;-41
2022/01/30 06:38:27;;;;;;;391.83;282.95;;;;;;;24.39;37.41;103163.81;5054020;28;20028;-42
2022/01/30 06:40:55;;;;;;;391.95;283.58;;;;;;;24.39;37.27;103165.56;5036914;28;20021;-42
2022/01/30 06:43:24;;;;;;;389.67;285.63;;;;;;;24.37;37.87;103167.22;5053844;28;20518;-42
2022/01/30 06:45:52;;;;;;;403.65;290.77;;;;;;;24.37;37.74;103160.22;5053699;28;20040;-41
2022/01/30 06:48:21;;;;;;;393.42;287.85;;;;;;;24.38;37.77;103163.75;5054039;28;20463;-41
2022/01/30 06:50:50;;;;;;;392.27;284.88;;;;;;;24.34;37.60;103161.81;5053266;28;20127;-41
2022/01/30 06:53:18;;;;;;;390.48;285.75;;;;;;;24.33;37.92;103160.91;5053783;28;20550;-41
2022/01/30 06:55:47;;;;;;;399.00;288.77;;;;;;;24.34;37.94;103162.69;5036091;28;20116;-41
2022/01/30 06:58:16;;;;;;;392.20;283.10;;;;;;;24.37;37.59;103165.47;5053504;28;20033;-42
2022/01/30 07:00:44;;;;;;;394.60;281.38;;;;;;;24.35;37.94;103150.50;5053263;28;20074;-41
2022/01/30 07:03:13;;;;;;;378.65;279.67;;;;;;;24.37;37.63;103149.72;5053113;28;20031;-42
2022/01/30 07:05:41;;;;;;;397.02;286.42;;;;;;;24.43;37.69;103149.09;5053514;28;20105;-41
2022/01/30 07:08:10;;;;;;;401.27;294.08;;;;;;;24.40;37.57;103143.75;5053206;28;20501;-42
2022/01/30 07:10:39;;;;;;;398.52;287.15;;;;;;;24.47;37.39;103147.56;5053584;28;20068;-42
2022/01/30 07:13:08;;;;;;;390.23;280.52;;;;;;;24.35;37.62;103148.75;5035974;28;20029;-41
2022/01/30 07:15:37;;;;;;;394.02;291.83;;;;;;;24.42;37.80;103150.84;5035750;28;20107;-42
2022/01/30 07:18:05;;;;;;;390.60;287.42;;;;;;;24.41;37.47;103159.53;5053130;28;20391;-42
2022/01/30 07:20:34;;;;;;;387.90;279.15;;;;;;;24.40;37.37;103152.50;5053063;28;20468;-42
2022/01/30 07:23:03;;;;;;;392.25;279.40;;;;;;;24.49;37.43;103157.28;5053376;28;20037;-42
2022/01/30 07:25:31;;;;;;;385.38;274.48;;;;;;;24.49;37.51;103159.00;5053049;28;20036;-42
2022/01/30 07:28:00;;;;;;;384.73;272.98;;;;;;;24.50;37.77;103163.41;5053011;28;20036;-42
2022/01/30 07:30:29;;;;;;;382.05;275.45;;;;;;;24.51;37.50;103162.56;5035430;28;20114;-43
2022/01/30 07:32:57;;;;;;;379.90;274.63;;;;;;;24.49;37.45;103164.25;5053258;28;20025;-42
2022/01/30 07:35:26;;;;;;;380.90;273.88;;;;;;;24.45;37.52;103154.44;5052562;28;20463;-41
2022/01/30 07:38:01;;;;;;;378.85;268.35;;;;;;;24.47;37.63;103158.03;5052956;28;20073;-43
2022/01/30 07:40:33;;;;;;;377.83;268.63;;;;;;;24.47;37.71;103156.31;5053083;28;20074;-41
2022/01/30 07:43:01;;;;;;;388.63;274.27;;;;;;;24.49;38.21;103161.63;5053512;28;20025;-41
2022/01/30 07:45:30;;;;;;;363.52;262.67;;;;;;;24.49;37.67;103154.66;5052469;28;20021;-45
2022/01/30 07:47:58;;;;;;;373.33;270.17;;;;;;;24.51;37.81;103157.34;5052493;28;20472;-41
2022/01/30 07:50:27;;;;;;;367.70;267.45;;;;;;;24.52;38.21;103157.41;5035289;28;20024;-41
2022/01/30 07:52:55;;;;;;;372.73;263.05;;;;;;;24.51;37.90;103146.84;5052745;28;20120;-40
2022/01/30 07:55:24;;;;;;;372.60;262.13;;;;;;;24.48;38.15;103157.22;5052725;28;20052;-42
2022/01/30 07:57:53;;;;;;;370.95;261.65;;;;;;;24.52;38.49;103159.13;5035079;28;20040;-41
2022/01/30 08:00:21;;;;;;;365.48;259.15;;;;;;;24.61;38.18;103159.56;5052498;28;20033;-43
2022/01/30 08:02:50;;;;;;;363.58;260.98;;;;;;;24.65;38.39;103157.97;5034502;28;20029;-41
2022/01/30 08:05:18;;;;;;;370.70;261.02;;;;;;;24.62;38.37;103157.81;5035230;28;20024;-42
2022/01/30 08:07:47;;;;;;;378.73;274.52;;;;;;;24.66;38.30;103154.50;5052601;28;20094;-45
2022/01/30 08:10:16;;;;;;;378.02;265.42;;;;;;;24.66;38.09;103157.13;5052210;28;20025;-41
2022/01/30 08:12:43;;;;;;;371.67;264.77;;;;;;;24.66;38.43;103170.25;5053016;28;20483;-42
2022/01/30 08:15:11;;;;;;;384.02;267.83;;;;;;;24.65;38.59;103157.97;5052197;28;20483;-42
2022/01/30 08:17:40;;;;;;;377.98;268.02;;;;;;;24.67;38.25;103164.19;5053088;28;20464;-43
2022/01/30 08:20:09;;;;;;;384.70;270.42;;;;;;;24.70;38.08;103167.88;5034854;28;20037;-41
2022/01/30 08:22:56;;;;;;;382.63;272.00;;;;;;;24.69;38.13;103160.78;5052900;28;20017;-42
2022/01/30 08:25:26;;;;;;;372.73;268.67;;;;;;;24.68;38.29;103163.34;5052183;28;20061;-42
2022/01/30 08:27:55;;;;;;;382.02;269.20;;;;;;;24.70;38.22;103165.25;5052611;28;20387;-42
2022/01/30 08:30:27;;;;;;;366.42;259.48;;;;;;;24.65;38.10;103164.13;5052736;28;20375;-41
2022/01/30 08:32:58;;;;;;;369.88;265.60;;;;;;;24.61;38.13;103167.44;5035592;28;20108;-41
2022/01/30 08:35:27;;;;;;;383.73;271.27;;;;;;;24.54;38.24;103149.59;5034527;28;20113;-41
2022/01/30 08:37:56;;;;;;;387.98;273.13;;;;;;;24.61;38.25;103156.94;5051514;28;20124;-41
2022/01/30 08:40:25;;;;;;;385.40;270.35;;;;;;;24.63;38.26;103151.75;5051873;28;20150;-42
2022/01/30 08:42:55;;;;;;;383.38;275.95;;;;;;;24.70;38.32;103154.75;5034455;28;20047;-42
2022/01/30 08:45:24;;;;;;;366.42;265.20;;;;;;;24.68;37.95;103158.09;5052730;28;20037;-41
2022/01/30 08:47:53;;;;;;;376.33;269.83;;;;;;;24.68;38.17;103159.00;5052409;28;20036;-41
2022/01/30 08:50:24;;;;;;;380.42;269.13;;;;;;;24.67;38.07;103154.56;5052433;28;20092;-41
2022/01/30 08:52:53;;;;;;;388.80;270.98;;;;;;;24.71;38.46;103163.53;5052335;28;20464;-42
2022/01/30 08:55:22;;;;;;;389.30;274.70;;;;;;;24.78;38.28;103157.72;5052390;28;20090;-42
2022/01/30 08:57:51;;;;;;;382.95;273.42;;;;;;;24.71;38.07;103155.66;5052347;28;20484;-43
2022/01/30 09:00:19;;;;;;;373.25;265.73;;;;;;;24.72;38.53;103160.97;5034607;28;20477;-42
2022/01/30 09:02:48;;;;;;;380.85;268.20;;;;;;;24.78;38.13;103169.94;5034585;28;20025;-42
2022/01/30 09:05:17;;;;;;;373.55;262.38;;;;;;;24.76;38.13;103158.47;5050998;28;20104;-41
2022/01/30 09:07:46;;;;;;;382.38;275.17;;;;;;;24.79;38.12;103166.50;5051737;28;20108;-43
2022/01/30 09:10:14;;;;;;;385.10;273.92;;;;;;;24.84;38.38;103159.69;5051026;28;20032;-42
2022/01/30 09:12:43;;;;;;;389.63;276.73;;;;;;;24.79;38.35;103161.25;5052969;28;20067;-42
2022/01/30 09:15:14;;;;;;;382.95;273.88;;;;;;;24.76;38.08;103162.00;5054906;28;20029;-41
2022/01/30 09:17:44;;;;;;;388.20;273.65;;;;;;;24.82;38.71;103166.63;5055152;28;20029;-43
2022/01/30 09:20:13;;;;;;;375.38;270.08;;;;;;;24.82;38.38;103172.78;5055770;28;20024;-41
2022/01/30 09:22:42;;;;;;;386.05;275.35;;;;;;;24.81;38.43;103170.09;5055106;28;20032;-42
2022/01/30 09:25:12;;;;;;;390.05;280.50;;;;;;;24.83;38.27;103169.31;5037839;28;20085;-41
2022/01/30 09:27:40;;;;;;;383.67;276.17;;;;;;;24.83;38.13;103165.78;5055311;28;20559;-42
2022/01/30 09:30:10;;;;;;;388.95;276.33;;;;;;;24.76;38.46;103164.63;5055750;28;20036;-43
2022/01/30 09:32:39;;;;;;;387.52;278.42;;;;;;;24.72;38.54;103174.09;5055338;28;20515;-43
2022/01/30 09:35:08;;;;;;;378.65;275.73;;;;;;;24.77;38.52;103174.28;5055944;28;20017;-43
2022/01/30 09:37:36;;;;;;;386.92;278.98;;;;;;;24.76;38.29;103174.22;5037353;28;20052;-42
2022/01/30 09:40:05;;;;;;;384.85;279.35;;;;;;;24.76;38.40;103182.09;5037639;28;20036;-42
2022/01/30 09:42:34;;;;;;;386.10;276.98;;;;;;;24.75;38.41;103177.69;5055102;28;20029;-42
2022/01/30 09:45:05;;;;;;;385.83;275.60;;;;;;;24.76;38.67;103175.13;5054239;28;20472;-42
2022/01/30 09:47:34;;;;;;;392.75;277.13;;;;;;;24.77;38.39;103178.66;5055038;28;20512;-41
2022/01/30 09:50:04;;;;;;;388.20;278.33;;;;;;;24.69;38.36;103165.16;5036878;28;20067;-42
2022/01/30 09:52:32;;;;;;;372.40;270.50;;;;;;;24.78;38.42;103183.06;5037333;28;20040;-42
2022/01/30 09:55:01;;;;;;;378.73;273.77;;;;;;;24.76;38.71;103171.59;5054968;28;20032;-43
2022/01/30 09:57:30;;;;;;;385.55;276.33;;;;;;;24.78;38.41;103172.56;5037065;28;20064;-41
2022/01/30 09:59:57;;;;;;;385.05;273.88;;;;;;;24.79;38.65;103174.38;5054820;28;20473;-43
2022/01/30 10:02:26;;;;;;;380.95;276.40;;;;;;;24.79;38.56;103175.25;5054945;28;20376;-42
2022/01/30 10:04:55;;;;;;;395.95;276.83;;;;;;;24.78;38.68;103170.84;5054465;28;20040;-42
2022/01/30 10:07:26;;;;;;;400.20;283.02;;;;;;;24.78;39.10;103175.19;5055451;28;20410;-41
2022/01/30 10:10:09;;;;;;;383.90;275.50;;;;;;;24.77;38.49;103176.91;5054879;28;20094;-41
2022/01/30 10:12:37;;;;;;;387.65;276.10;;;;;;;24.77;38.74;103183.91;5055125;28;20086;-42
2022/01/30 10:15:15;;;;;;;390.45;277.02;;;;;;;24.78;39.13;103183.06;5036950;28;20066;-41
2022/01/30 10:17:53;;;;;;;387.10;279.83;;;;;;;24.70;38.57;103153.88;5054397;28;20033;-42
2022/01/30 10:20:25;;;;;;;387.35;278.67;;;;;;;24.79;38.83;103162.13;5053985;28;20143;-42
2022/01/30 10:22:54;;;;;;;392.52;283.63;;;;;;;24.79;38.78;103166.50;5054513;28;20108;-41
2022/01/30 10:25:27;;;;;;;390.95;283.80;;;;;;;24.75;38.68;103173.31;5053667;28;20033;-45
2022/01/30 10:28:15;;;;;;;392.63;279.88;;;;;;;24.78;38.89;103172.56;5054321;28;20041;-42
2022/01/30 10:30:45;;;;;;;396.13;284.05;;;;;;;24.72;38.72;103174.09;5029243;28;20120;-43
2022/01/30 10:33:15;;;;;;;392.83;280.70;;;;;;;24.56;38.92;103142.69;5054376;28;20047;-41
2022/01/30 10:35:48;;;;;;;391.70;280.65;;;;;;;24.71;38.81;103172.28;5054117;28;20036;-41
2022/01/30 10:38:20;;;;;;;397.70;282.38;;;;;;;24.75;38.64;103185.56;5053990;28;20075;-42
2022/01/30 10:41:14;;;;;;;403.42;285.45;;;;;;;24.74;38.54;103187.25;5054227;28;20065;-41
2022/01/30 10:44:04;;;;;;;392.63;279.58;;;;;;;24.75;38.92;103183.81;5049381;28;20381;-41
2022/01/30 10:46:34;;;;;;;393.95;276.65;;;;;;;24.76;38.51;103179.47;5035894;28;20206;-42
2022/01/30 10:49:10;;;;;;;394.80;283.52;;;;;;;24.76;39.05;103171.59;5054022;28;20134;-42
2022/01/30 10:51:40;;;;;;;380.55;276.60;;;;;;;24.75;38.78;103182.94;5037400;28;20013;-44
2022/01/30 10:54:12;;;;;;;392.40;275.58;;;;;;;24.76;38.87;103185.63;5054177;28;20028;-42
2022/01/30 10:56:41;;;;;;;381.80;269.27;;;;;;;24.81;38.56;103180.59;5053818;28;20028;-42
2022/01/30 10:59:22;;;;;;;390.08;280.02;;;;;;;24.77;38.71;103174.28;5036138;28;20032;-42
2022/01/30 11:01:53;;;;;;;389.92;280.45;;;;;;;24.75;39.09;103175.94;5053628;28;20025;-43
2022/01/30 11:04:23;;;;;;;388.60;278.33;;;;;;;24.79;38.66;103183.13;5054044;28;20037;-42
2022/01/30 11:06:52;;;;;;;392.08;278.77;;;;;;;24.80;38.61;103177.06;5053351;28;20495;-45
2022/01/30 11:09:28;;;;;;;377.02;272.77;;;;;;;24.80;38.56;103173.53;5053591;28;20392;-42
2022/01/30 11:12:02;;;;;;;386.73;275.27;;;;;;;24.80;38.98;103173.53;5053248;28;20373;-42
2022/01/30 11:15:05;;;;;;;373.80;270.88;;;;;;;24.83;38.87;103171.03;5054127;28;20388;-44
2022/01/30 11:17:22;;;;;;;372.88;263.35;;;;;;;24.83;38.81;103160.53;5052768;28;20041;-42
2022/01/30 11:19:57;;;;;;;365.55;263.60;;;;;;;24.81;38.86;103168.34;5052916;28;20029;-42
2022/01/30 11:22:28;;;;;;;;;;;;;;;24.92;38.34;103170.53;5036011;28;20021;-42
2022/01/30 11:25:04;;;;;;;365.65;259.30;;;;;;;24.85;38.26;103158.88;5035556;28;19919;-42
2022/01/30 11:27:32;;;;;;;350.63;254.50;;;;;;;24.85;38.27;103169.38;5052893;28;20032;-42
2022/01/30 11:30:02;;;;;;;353.55;251.07;;;;;;;24.88;38.27;103167.81;5036230;28;20036;-43
2022/01/30 11:32:29;;;;;;;346.85;248.93;;;;;;;24.88;38.10;103156.38;5053169;28;20025;-43
2022/01/30 11:34:59;;;;;;;348.30;247.15;;;;;;;24.83;38.16;103153.56;5053262;28;20033;-42
2022/01/30 11:37:30;;;;;;;346.75;245.93;;;;;;;24.85;38.53;103145.75;5053069;28;20056;-42
2022/01/30 11:40:00;;;;;;;342.70;242.98;;;;;;;24.86;38.43;103145.84;5035653;28;20029;-42
2022/01/30 11:42:40;;;;;;;326.90;237.50;;;;;;;24.89;38.34;103134.56;5053461;28;20021;-42